createdAt,value
2019-05-26T00:01:06.772Z,90.80
2019-05-26T00:03:37.335Z,91.10
2019-05-26T00:06:07.801Z,91.30
2019-05-26T00:08:38.322Z,91.60
2019-05-26T00:11:08.852Z,92.00
2019-05-26T00:13:39.322Z,92.40
2019-05-26T00:16:09.761Z,92.60
2019-05-26T00:18:40.197Z,92.80
2019-05-26T00:21:10.624Z,93.40
2019-05-26T00:23:41.067Z,93.50
2019-05-26T00:26:11.529Z,93.60
2019-05-26T00:28:42.129Z,93.90
2019-05-26T00:31:12.554Z,93.90
2019-05-26T00:33:43.002Z,94.00
2019-05-26T00:36:13.428Z,93.90
2019-05-26T00:38:43.935Z,94.00
2019-05-26T00:41:14.383Z,94.10
2019-05-26T00:43:44.872Z,94.10
2019-05-26T00:46:15.301Z,93.90
2019-05-26T00:48:45.990Z,93.90
2019-05-26T00:51:16.414Z,93.80
2019-05-26T00:53:46.901Z,94.10
2019-05-26T00:56:17.351Z,93.90
2019-05-26T00:58:47.755Z,93.90
2019-05-26T01:01:18.190Z,94.10
2019-05-26T01:03:48.701Z,94.20
2019-05-26T01:06:19.510Z,94.50
2019-05-26T01:08:50.023Z,94.60
2019-05-26T01:11:20.534Z,94.80
2019-05-26T01:13:51.041Z,94.90
2019-05-26T01:16:21.869Z,95.20
2019-05-26T01:18:52.425Z,95.20
2019-05-26T01:21:22.964Z,95.40
2019-05-26T01:23:53.506Z,95.70
2019-05-26T01:26:23.971Z,96.10
2019-05-26T01:28:54.365Z,96.50
2019-05-26T01:31:24.806Z,96.50
2019-05-26T01:33:55.252Z,96.70
2019-05-26T01:36:26.031Z,97.00
2019-05-26T01:38:56.552Z,97.40
2019-05-26T01:41:26.978Z,97.60
2019-05-26T01:43:57.431Z,97.60
2019-05-26T01:46:27.841Z,97.60
2019-05-26T01:48:58.336Z,97.70
2019-05-26T01:51:28.977Z,97.80
2019-05-26T01:53:59.543Z,97.80
2019-05-26T01:56:29.975Z,97.70
2019-05-26T01:59:00.592Z,97.90
2019-05-26T02:01:31.202Z,97.90
2019-05-26T02:04:01.803Z,98.10
2019-05-26T02:06:32.215Z,98.10
2019-05-26T02:09:05.258Z,98.20
2019-05-26T02:11:36.623Z,98.20
2019-05-26T02:14:07.097Z,98.50
2019-05-26T02:16:37.513Z,98.70
2019-05-26T02:19:09.925Z,98.90
2019-05-26T02:21:40.350Z,99.00
2019-05-26T02:24:10.775Z,99.20
2019-05-26T02:26:41.179Z,99.30
2019-05-26T02:29:11.641Z,99.40
2019-05-26T02:31:42.120Z,99.30
2019-05-26T02:34:12.571Z,99.60
2019-05-26T02:36:42.971Z,99.70
2019-05-26T02:39:13.615Z,99.80
2019-05-26T02:41:44.040Z,99.70
2019-05-26T02:44:14.504Z,99.80
2019-05-26T02:46:44.943Z,99.90
2019-05-26T02:49:15.348Z,99.90
2019-05-26T02:51:45.829Z,99.90
2019-05-26T02:54:16.253Z,99.90
2019-05-26T02:56:46.748Z,99.90
2019-05-26T02:59:17.191Z,99.90
2019-05-26T03:02:02.227Z,99.90
2019-05-26T03:04:19.980Z,99.90
2019-05-26T03:06:52.505Z,99.90
2019-05-26T03:09:25.331Z,99.90
2019-05-26T03:11:57.874Z,99.90
2019-05-26T03:14:35.798Z,99.90
2019-05-26T03:17:06.807Z,99.90
2019-05-26T03:19:37.236Z,99.90
2019-05-26T03:22:08.034Z,99.90
2019-05-26T03:24:42.225Z,99.90
2019-05-26T03:27:12.659Z,99.90
2019-05-26T03:29:43.115Z,99.90
2019-05-26T03:32:13.545Z,99.90
2019-05-26T03:34:44.063Z,99.90
2019-05-26T03:37:14.514Z,99.90
2019-05-26T03:39:46.364Z,99.90
2019-05-26T03:42:17.429Z,99.90
2019-05-26T03:44:47.925Z,99.90
2019-05-26T03:47:18.508Z,99.90
2019-05-26T03:49:49.080Z,99.90
2019-05-26T03:52:19.544Z,99.90
2019-05-26T03:54:49.968Z,99.90
2019-05-26T03:57:20.954Z,99.90
2019-05-26T03:59:51.387Z,99.90
2019-05-26T04:02:21.836Z,99.90
2019-05-26T04:04:52.371Z,99.90
2019-05-26T04:07:22.865Z,99.90
2019-05-26T04:10:04.672Z,99.90
2019-05-26T04:12:25.665Z,99.90
2019-05-26T04:14:56.348Z,99.90
2019-05-26T04:17:26.796Z,99.90
2019-05-26T04:19:57.205Z,99.90
2019-05-26T04:22:27.677Z,99.90
2019-05-26T04:24:58.144Z,99.90
2019-05-26T04:27:28.666Z,99.90
2019-05-26T04:29:59.103Z,99.90
2019-05-26T04:32:29.542Z,99.90
2019-05-26T04:34:59.996Z,99.90
2019-05-26T04:37:30.453Z,99.90
2019-05-26T04:40:00.892Z,99.90
2019-05-26T04:42:31.414Z,99.90
2019-05-26T04:45:01.812Z,99.90
2019-05-26T04:47:32.364Z,99.90
2019-05-26T04:50:02.797Z,99.90
2019-05-26T04:52:33.208Z,99.90
2019-05-26T04:55:03.849Z,99.90
2019-05-26T04:57:34.340Z,99.90
2019-05-26T05:00:05.864Z,99.90
2019-05-26T05:02:36.627Z,99.90
2019-05-26T05:05:07.537Z,99.90
2019-05-26T05:07:38.067Z,99.90
2019-05-26T05:10:08.730Z,99.90
2019-05-26T05:12:39.830Z,99.90
2019-05-26T05:15:11.045Z,99.90
2019-05-26T05:17:41.592Z,99.40
2019-05-26T05:20:12.238Z,99.40
2019-05-26T05:22:42.644Z,99.30
2019-05-26T05:25:15.246Z,99.10
2019-05-26T05:27:46.364Z,98.50
2019-05-26T05:30:17.236Z,97.70
2019-05-26T05:32:47.726Z,98.20
2019-05-26T05:35:18.913Z,98.60
2019-05-26T05:37:49.364Z,97.10
2019-05-26T05:40:20.081Z,96.20
2019-05-26T05:42:50.547Z,94.20
2019-05-26T05:45:22.460Z,87.40
2019-05-26T05:47:52.940Z,81.50
2019-05-26T05:50:23.588Z,75.00
2019-05-26T05:52:54.155Z,70.40
2019-05-26T05:55:24.606Z,63.40
2019-05-26T05:57:55.074Z,60.60
2019-05-26T06:00:25.752Z,58.80
2019-05-26T06:02:56.659Z,59.30
2019-05-26T06:05:27.079Z,56.40
2019-05-26T06:07:57.566Z,53.30
2019-05-26T06:10:47.079Z,51.10
2019-05-26T06:13:17.531Z,48.40
2019-05-26T06:15:47.951Z,45.80
2019-05-26T06:18:18.442Z,45.20
2019-05-26T06:20:49.263Z,41.90
2019-05-26T06:23:19.810Z,42.10
2019-05-26T06:25:50.221Z,42.40
2019-05-26T06:28:20.676Z,41.60
2019-05-26T06:30:52.061Z,43.00
2019-05-26T06:33:22.692Z,44.70
2019-05-26T06:35:53.306Z,46.20
2019-05-26T06:38:23.964Z,47.40
2019-05-26T06:40:54.571Z,47.90
2019-05-26T06:43:25.213Z,46.30
2019-05-26T06:45:55.694Z,45.60
2019-05-26T06:48:27.088Z,44.10
2019-05-26T06:50:57.779Z,44.30
2019-05-26T06:53:28.250Z,43.10
2019-05-26T06:55:58.660Z,41.60
2019-05-26T06:58:29.121Z,41.10
2019-05-26T07:00:59.536Z,37.10
2019-05-26T07:03:30.090Z,37.30
2019-05-26T07:06:00.503Z,36.90
2019-05-26T07:08:30.928Z,36.50
2019-05-26T07:11:01.430Z,39.00
2019-05-26T07:13:31.951Z,39.40
2019-05-26T07:16:02.451Z,40.10
2019-05-26T07:18:32.964Z,40.00
2019-05-26T07:21:03.487Z,38.00
2019-05-26T07:23:33.963Z,36.00
2019-05-26T07:26:04.835Z,34.60
2019-05-26T07:28:35.278Z,34.70
2019-05-26T07:31:05.959Z,34.40
2019-05-26T07:33:36.485Z,35.80
2019-05-26T07:36:06.958Z,36.90
2019-05-26T07:38:37.416Z,38.30
2019-05-26T07:41:07.956Z,37.50
2019-05-26T07:43:38.740Z,38.10
2019-05-26T07:46:09.182Z,38.10
2019-05-26T07:48:39.625Z,39.00
2019-05-26T07:51:10.040Z,38.20
2019-05-26T07:53:40.487Z,37.60
2019-05-26T07:56:10.939Z,37.60
2019-05-26T07:58:41.564Z,37.70
2019-05-26T08:01:12.002Z,35.10
2019-05-26T08:03:42.737Z,34.20
2019-05-26T08:06:13.246Z,33.70
2019-05-26T08:08:43.716Z,34.20
2019-05-26T08:11:14.204Z,32.10
2019-05-26T08:13:45.053Z,31.60
2019-05-26T08:16:15.523Z,31.50
2019-05-26T08:18:45.912Z,30.40
2019-05-26T08:21:16.332Z,31.60
2019-05-26T08:23:46.801Z,29.80
2019-05-26T08:26:17.257Z,29.20
2019-05-26T08:28:47.932Z,29.10
2019-05-26T08:31:18.490Z,29.70
2019-05-26T08:33:48.903Z,29.60
2019-05-26T08:36:19.401Z,29.50
2019-05-26T08:38:49.824Z,29.60
2019-05-26T08:41:20.346Z,31.00
2019-05-26T08:43:50.974Z,30.50
2019-05-26T08:46:21.443Z,29.80
2019-05-26T08:48:51.906Z,30.40
2019-05-26T08:51:22.372Z,30.70
2019-05-26T08:53:52.990Z,32.30
2019-05-26T08:56:23.427Z,33.50
2019-05-26T08:58:53.845Z,32.40
2019-05-26T09:01:24.324Z,32.40
2019-05-26T09:03:54.790Z,33.40
2019-05-26T09:06:27.175Z,33.70
2019-05-26T09:08:57.654Z,33.40
2019-05-26T09:11:28.142Z,34.70
2019-05-26T09:13:58.804Z,36.30
2019-05-26T09:16:29.491Z,34.10
2019-05-26T09:18:59.901Z,29.80
2019-05-26T09:21:30.587Z,29.00
2019-05-26T09:24:01.015Z,29.80
2019-05-26T09:26:31.876Z,31.80
2019-05-26T09:29:02.298Z,29.70
2019-05-26T09:31:34.290Z,31.50
2019-05-26T09:34:04.979Z,31.00
2019-05-26T09:36:35.541Z,29.80
2019-05-26T09:39:08.902Z,28.60
2019-05-26T09:41:39.446Z,28.90
2019-05-26T09:44:09.884Z,28.60
2019-05-26T09:46:40.337Z,29.80
2019-05-26T09:49:11.190Z,28.20
2019-05-26T09:51:41.566Z,28.10
2019-05-26T09:54:12.872Z,28.10
2019-05-26T09:56:43.551Z,28.80
2019-05-26T09:59:14.141Z,30.00
2019-05-26T10:01:44.722Z,29.50
2019-05-26T10:04:15.563Z,29.40
2019-05-26T10:06:46.198Z,28.80
2019-05-26T10:09:16.854Z,29.80
2019-05-26T10:11:47.444Z,28.80
2019-05-26T10:14:18.223Z,28.90
2019-05-26T10:16:48.802Z,29.30
2019-05-26T10:19:19.257Z,28.70
2019-05-26T10:21:49.724Z,29.50
2019-05-26T10:24:20.240Z,28.50
2019-05-26T10:26:50.792Z,28.20
2019-05-26T10:29:21.413Z,29.50
2019-05-26T10:31:52.064Z,29.70
2019-05-26T10:34:22.641Z,30.50
2019-05-26T10:36:53.122Z,30.90
2019-05-26T10:39:23.557Z,33.00
2019-05-26T10:41:54.143Z,34.10
2019-05-26T10:44:24.636Z,35.70
2019-05-26T10:46:55.186Z,35.50
2019-05-26T10:49:25.619Z,36.40
2019-05-26T10:51:56.149Z,37.90
2019-05-26T10:54:26.611Z,39.10
2019-05-26T10:56:57.288Z,39.80
2019-05-26T10:59:27.840Z,40.90
2019-05-26T11:01:58.332Z,39.20
2019-05-26T11:04:28.851Z,40.30
2019-05-26T11:06:59.389Z,40.60
2019-05-26T11:09:30.154Z,41.10
2019-05-26T11:12:00.641Z,40.00
2019-05-26T11:14:31.184Z,39.10
2019-05-26T11:17:01.654Z,41.20
2019-05-26T11:19:32.128Z,39.00
2019-05-26T11:22:03.295Z,40.60
2019-05-26T11:24:33.838Z,40.10
2019-05-26T11:27:10.799Z,42.00
2019-05-26T11:29:37.684Z,41.00
2019-05-26T11:32:08.157Z,41.20
2019-05-26T11:34:38.776Z,41.20
2019-05-26T11:37:09.657Z,41.70
2019-05-26T11:39:40.221Z,41.30
2019-05-26T11:42:13.663Z,41.30
2019-05-26T11:44:43.206Z,40.60
2019-05-26T11:47:13.683Z,41.20
2019-05-26T11:49:44.381Z,40.70
2019-05-26T11:52:14.978Z,41.50
2019-05-26T11:54:45.486Z,41.40
2019-05-26T11:57:16.309Z,44.70
2019-05-26T11:59:47.558Z,39.10
2019-05-26T12:02:18.182Z,39.70
2019-05-26T12:04:48.597Z,40.30
2019-05-26T12:07:19.247Z,39.70
2019-05-26T12:09:49.846Z,39.80
2019-05-26T12:12:20.549Z,40.40
2019-05-26T12:14:50.990Z,38.00
2019-05-26T12:17:21.435Z,38.10
2019-05-26T12:19:51.899Z,37.40
2019-05-26T12:22:22.429Z,38.00
2019-05-26T12:24:52.907Z,39.10
2019-05-26T12:27:23.378Z,39.80
2019-05-26T12:29:53.868Z,38.10
2019-05-26T12:32:24.301Z,36.60
2019-05-26T12:34:54.780Z,36.50
2019-05-26T12:37:25.402Z,37.00
2019-05-26T12:39:55.884Z,36.90
2019-05-26T12:42:26.346Z,35.00
2019-05-26T12:44:56.811Z,34.90
2019-05-26T12:47:27.288Z,37.00
2019-05-26T12:49:57.793Z,36.60
2019-05-26T12:52:28.502Z,35.50
2019-05-26T12:54:59.086Z,35.90
2019-05-26T12:57:29.584Z,36.20
2019-05-26T13:00:00.142Z,37.20
2019-05-26T13:02:30.669Z,34.80
2019-05-26T13:05:01.171Z,34.60
2019-05-26T13:07:31.798Z,33.60
2019-05-26T13:10:02.297Z,34.30
2019-05-26T13:12:32.906Z,35.10
2019-05-26T13:15:06.271Z,36.40
2019-05-26T13:17:35.676Z,35.30
2019-05-26T13:20:07.050Z,35.40
2019-05-26T13:22:38.053Z,35.10
2019-05-26T13:25:11.434Z,34.70
2019-05-26T13:27:42.081Z,35.20
2019-05-26T13:30:13.527Z,34.80
2019-05-26T13:32:43.997Z,35.40
2019-05-26T13:35:14.911Z,36.10
2019-05-26T13:37:45.313Z,37.10
2019-05-26T13:40:16.518Z,37.30
2019-05-26T13:42:46.959Z,36.90
2019-05-26T13:45:22.887Z,39.30
2019-05-26T13:47:50.786Z,38.90
2019-05-26T13:50:22.239Z,37.90
2019-05-26T13:52:52.704Z,37.90
2019-05-26T13:55:23.191Z,38.10
2019-05-26T13:57:53.687Z,37.40
2019-05-26T14:00:24.997Z,36.10
2019-05-26T14:02:55.780Z,37.70
2019-05-26T14:05:26.227Z,35.00
2019-05-26T14:07:56.880Z,33.80
2019-05-26T14:10:34.036Z,34.10
2019-05-26T14:13:06.014Z,34.30
2019-05-26T14:15:39.139Z,34.60
2019-05-26T14:18:10.093Z,35.80
2019-05-26T14:20:42.015Z,35.50
2019-05-26T14:23:12.827Z,35.90
2019-05-26T14:25:43.217Z,33.80
2019-05-26T14:28:13.915Z,34.10
2019-05-26T14:30:44.444Z,34.80
2019-05-26T14:33:14.934Z,35.30
2019-05-26T14:35:45.387Z,35.90
2019-05-26T14:38:15.864Z,35.80
2019-05-26T14:40:46.833Z,35.40
2019-05-26T14:43:17.350Z,35.90
2019-05-26T14:45:53.251Z,35.20
2019-05-26T14:48:20.350Z,35.10
2019-05-26T14:50:50.957Z,36.10
2019-05-26T14:53:21.377Z,36.00
2019-05-26T14:55:51.866Z,37.30
2019-05-26T14:58:22.297Z,36.50
2019-05-26T15:00:52.793Z,35.20
2019-05-26T15:03:23.399Z,34.60
2019-05-26T15:06:05.553Z,35.90
2019-05-26T15:08:27.230Z,35.60
2019-05-26T15:10:57.921Z,37.20
2019-05-26T15:13:28.432Z,36.50
2019-05-26T15:16:09.282Z,34.60
2019-05-26T15:18:31.556Z,35.40
2019-05-26T15:21:02.103Z,35.10
2019-05-26T15:23:32.525Z,36.70
2019-05-26T15:26:05.338Z,37.60
2019-05-26T15:28:35.494Z,37.90
2019-05-26T15:31:09.919Z,38.20
2019-05-26T15:33:38.807Z,38.20
2019-05-26T15:36:09.246Z,38.80
2019-05-26T15:38:43.037Z,38.50
2019-05-26T15:41:12.125Z,39.10
2019-05-26T15:43:42.660Z,40.00
2019-05-26T15:46:24.643Z,39.30
2019-05-26T15:48:45.547Z,39.00
2019-05-26T15:51:15.989Z,39.50
2019-05-26T15:53:46.619Z,38.30
2019-05-26T15:56:17.026Z,38.20
2019-05-26T15:58:47.894Z,38.90
2019-05-26T16:01:18.368Z,39.70
2019-05-26T16:03:48.904Z,39.70
2019-05-26T16:06:20.208Z,40.00
2019-05-26T16:08:51.176Z,41.20
2019-05-26T16:11:22.163Z,41.50
2019-05-26T16:13:52.825Z,40.90
2019-05-26T16:16:23.307Z,40.70
2019-05-26T16:18:54.637Z,40.10
2019-05-26T16:21:28.318Z,40.60
2019-05-26T16:23:58.372Z,40.10
2019-05-26T16:26:28.923Z,39.90
2019-05-26T16:28:59.433Z,40.20
2019-05-26T16:31:30.028Z,40.40
2019-05-26T16:34:00.751Z,42.40
2019-05-26T16:36:31.485Z,41.10
2019-05-26T16:39:01.998Z,41.60
2019-05-26T16:41:32.472Z,41.40
2019-05-26T16:44:02.988Z,41.60
2019-05-26T16:46:33.537Z,41.10
2019-05-26T16:49:04.083Z,41.40
2019-05-26T16:51:38.654Z,42.00
2019-05-26T16:54:09.557Z,42.40
2019-05-26T16:56:40.348Z,45.50
2019-05-26T16:59:11.235Z,44.00
2019-05-26T17:01:42.406Z,42.00
2019-05-26T17:04:13.499Z,43.30
2019-05-26T17:06:44.711Z,43.50
2019-05-26T17:09:15.272Z,43.30
2019-05-26T17:11:46.034Z,42.80
2019-05-26T17:14:17.055Z,42.90
2019-05-26T17:16:47.651Z,43.10
2019-05-26T17:19:18.207Z,43.20
2019-05-26T17:21:48.896Z,43.30
2019-05-26T17:24:20.690Z,43.10
2019-05-26T17:26:51.861Z,44.20
2019-05-26T17:29:22.608Z,47.30
2019-05-26T17:31:53.216Z,45.70
2019-05-26T17:34:25.005Z,44.20
2019-05-26T17:36:55.612Z,44.40
2019-05-26T17:39:26.650Z,44.40
2019-05-26T17:41:58.780Z,46.90
2019-05-26T17:44:31.313Z,45.10
2019-05-26T17:47:02.138Z,45.10
2019-05-26T17:49:32.810Z,44.70
2019-05-26T17:52:03.301Z,46.50
2019-05-26T17:54:33.929Z,45.30
2019-05-26T17:57:05.933Z,46.70
2019-05-26T17:59:36.853Z,46.70
2019-05-26T18:02:08.177Z,48.00
2019-05-26T18:04:38.675Z,48.60
2019-05-26T18:07:09.425Z,48.10
2019-05-26T18:09:44.387Z,48.50
2019-05-26T18:12:12.708Z,48.40
2019-05-26T18:14:43.907Z,48.60
2019-05-26T18:17:14.792Z,48.90
2019-05-26T18:19:45.525Z,48.80
2019-05-26T18:22:16.685Z,48.30
2019-05-26T18:24:56.619Z,48.50
2019-05-26T18:27:20.330Z,48.90
2019-05-26T18:29:50.938Z,49.70
2019-05-26T18:32:21.777Z,50.70
2019-05-26T18:34:52.299Z,50.50
2019-05-26T18:37:22.830Z,50.50
2019-05-26T18:39:53.333Z,51.00
2019-05-26T18:42:23.820Z,51.50
2019-05-26T18:44:54.598Z,51.60
2019-05-26T18:47:25.014Z,51.00
2019-05-26T18:49:55.590Z,51.70
2019-05-26T18:52:26.189Z,53.70
2019-05-26T18:54:56.791Z,54.10
2019-05-26T18:57:27.226Z,53.60
2019-05-26T18:59:57.846Z,54.40
2019-05-26T19:02:28.490Z,56.40
2019-05-26T19:04:59.183Z,57.30
2019-05-26T19:07:29.770Z,57.60
2019-05-26T19:10:00.418Z,58.90
2019-05-26T19:12:31.246Z,59.20
2019-05-26T19:15:02.139Z,59.80
2019-05-26T19:17:32.816Z,60.30
2019-05-26T19:20:15.416Z,61.90
2019-05-26T19:22:35.948Z,62.40
2019-05-26T19:25:06.821Z,64.20
2019-05-26T19:27:37.262Z,63.80
2019-05-26T19:30:08.298Z,64.00
2019-05-26T19:32:40.792Z,65.30
2019-05-26T19:35:11.641Z,67.00
2019-05-26T19:37:42.204Z,66.90
2019-05-26T19:40:13.389Z,66.60
2019-05-26T19:42:44.168Z,66.60
2019-05-26T19:45:15.854Z,67.10
2019-05-26T19:47:46.350Z,68.00
2019-05-26T19:50:17.048Z,67.50
2019-05-26T19:52:49.963Z,68.40
2019-05-26T19:55:19.955Z,69.00
2019-05-26T19:57:50.737Z,68.90
2019-05-26T20:00:21.887Z,70.30
2019-05-26T20:02:52.433Z,71.70
2019-05-26T20:05:22.974Z,71.90
2019-05-26T20:07:53.471Z,72.20
2019-05-26T20:10:24.527Z,72.80
2019-05-26T20:12:55.287Z,73.80
2019-05-26T20:15:25.806Z,74.80
2019-05-26T20:17:56.263Z,74.50
2019-05-26T20:20:26.802Z,75.40
2019-05-26T20:22:57.249Z,75.00
2019-05-26T20:25:27.858Z,76.40
2019-05-26T20:27:58.294Z,77.40
2019-05-26T20:30:28.849Z,77.30
2019-05-26T20:32:59.343Z,77.30
2019-05-26T20:35:29.791Z,77.90
2019-05-26T20:38:00.243Z,79.10
2019-05-26T20:40:30.890Z,79.80
2019-05-26T20:43:01.381Z,80.50
2019-05-26T20:45:32.015Z,81.20
2019-05-26T20:48:03.318Z,81.60
2019-05-26T20:50:34.268Z,82.00
2019-05-26T20:53:04.747Z,83.30
2019-05-26T20:55:35.213Z,84.80
2019-05-26T20:58:05.747Z,84.70
2019-05-26T21:00:36.219Z,84.80
2019-05-26T21:03:06.714Z,85.70
2019-05-26T21:05:37.197Z,86.30
2019-05-26T21:08:07.680Z,86.80
2019-05-26T21:10:38.119Z,87.90
2019-05-26T21:13:08.661Z,88.00
2019-05-26T21:15:39.119Z,88.80
2019-05-26T21:18:09.563Z,88.40
2019-05-26T21:20:39.960Z,89.00
2019-05-26T21:23:10.478Z,89.60
2019-05-26T21:25:41.275Z,89.50
2019-05-26T21:28:11.863Z,90.00
2019-05-26T21:30:42.407Z,89.60
2019-05-26T21:33:12.877Z,90.30
2019-05-26T21:35:43.636Z,90.00
2019-05-26T21:38:14.341Z,89.60
2019-05-26T21:40:44.945Z,90.20
2019-05-26T21:43:15.410Z,90.70
2019-05-26T21:45:45.966Z,90.60
2019-05-26T21:48:16.426Z,90.70
2019-05-26T21:50:46.886Z,90.90
2019-05-26T21:53:17.403Z,90.90
2019-05-26T21:55:48.000Z,91.10
2019-05-26T21:58:18.513Z,90.90
2019-05-26T22:00:50.365Z,91.00
2019-05-26T22:03:21.036Z,90.70
2019-05-26T22:05:51.489Z,90.90
2019-05-26T22:08:21.969Z,91.30
2019-05-26T22:10:52.375Z,91.50
2019-05-26T22:13:23.034Z,91.30
2019-05-26T22:15:53.470Z,91.30
2019-05-26T22:18:24.040Z,91.40
2019-05-26T22:20:54.472Z,91.40
2019-05-26T22:23:24.955Z,91.40
2019-05-26T22:25:55.342Z,91.50
2019-05-26T22:28:25.774Z,91.70
2019-05-26T22:30:56.183Z,91.80
2019-05-26T22:33:26.629Z,91.60
2019-05-26T22:35:57.039Z,91.90
2019-05-26T22:38:27.501Z,91.80
2019-05-26T22:40:57.872Z,92.00
2019-05-26T22:43:28.421Z,92.00
2019-05-26T22:45:58.866Z,92.00
2019-05-26T22:48:29.319Z,92.50
2019-05-26T22:50:59.903Z,92.30
2019-05-26T22:53:30.368Z,92.40
2019-05-26T22:56:00.770Z,92.20
2019-05-26T22:58:31.312Z,92.40
2019-05-26T23:01:01.741Z,92.60
2019-05-26T23:03:32.164Z,93.10
2019-05-26T23:06:02.733Z,93.00
2019-05-26T23:08:33.125Z,93.70
2019-05-26T23:11:03.528Z,93.30
2019-05-26T23:13:34.151Z,93.50
2019-05-26T23:16:04.616Z,93.60
2019-05-26T23:18:35.048Z,93.40
2019-05-26T23:21:05.549Z,93.80
2019-05-26T23:23:35.970Z,94.60
2019-05-26T23:26:06.399Z,94.40
2019-05-26T23:28:36.912Z,94.50
2019-05-26T23:31:07.386Z,94.80
2019-05-26T23:33:37.799Z,94.60
2019-05-26T23:36:08.204Z,94.60
2019-05-26T23:38:38.612Z,94.40
2019-05-26T23:41:09.069Z,94.80
2019-05-26T23:43:39.506Z,95.30
2019-05-26T23:46:10.190Z,95.70
2019-05-26T23:48:40.652Z,95.90
2019-05-26T23:51:11.077Z,96.00
2019-05-26T23:53:41.488Z,96.00
2019-05-26T23:56:11.895Z,96.10
2019-05-26T23:58:42.301Z,96.40
